sensor_id;sensor_type;location;lat;lon;timestamp;temperature;humidity
68648;SHT31;55632;51.962;16.116;2023-04-25T00:04:53;9.24;72.00
68648;SHT31;55632;51.962;16.116;2023-04-25T00:09:54;9.20;72.05
68648;SHT31;55632;51.962;16.116;2023-04-25T00:14:55;9.15;72.21
68648;SHT31;55632;51.962;16.116;2023-04-25T00:20:01;9.12;72.30
68648;SHT31;55632;51.962;16.116;2023-04-25T00:25:06;9.06;72.49
68648;SHT31;55632;51.962;16.116;2023-04-25T00:30:08;9.05;72.68
68648;SHT31;55632;51.962;16.116;2023-04-25T00:35:09;9.06;72.91
68648;SHT31;55632;51.962;16.116;2023-04-25T00:40:11;9.08;73.13
68648;SHT31;55632;51.962;16.116;2023-04-25T00:45:13;9.08;73.35
68648;SHT31;55632;51.962;16.116;2023-04-25T00:50:15;9.11;73.47
68648;SHT31;55632;51.962;16.116;2023-04-25T00:55:16;9.11;73.69
68648;SHT31;55632;51.962;16.116;2023-04-25T01:00:18;9.11;73.81
68648;SHT31;55632;51.962;16.116;2023-04-25T01:05:19;9.02;73.78
68648;SHT31;55632;51.962;16.116;2023-04-25T01:10:20;8.98;73.91
68648;SHT31;55632;51.962;16.116;2023-04-25T01:15:21;8.89;74.09
68648;SHT31;55632;51.962;16.116;2023-04-25T01:20:22;8.84;74.26
68648;SHT31;55632;51.962;16.116;2023-04-25T01:25:24;8.79;74.52
68648;SHT31;55632;51.962;16.116;2023-04-25T01:30:26;8.72;74.77
68648;SHT31;55632;51.962;16.116;2023-04-25T01:35:28;8.67;74.91
68648;SHT31;55632;51.962;16.116;2023-04-25T01:40:29;8.61;75.06
68648;SHT31;55632;51.962;16.116;2023-04-25T01:45:31;8.56;75.22
68648;SHT31;55632;51.962;16.116;2023-04-25T01:50:33;8.50;75.34
68648;SHT31;55632;51.962;16.116;2023-04-25T01:55:34;8.49;75.46
68648;SHT31;55632;51.962;16.116;2023-04-25T02:00:40;8.42;75.59
68648;SHT31;55632;51.962;16.116;2023-04-25T02:05:41;8.36;75.74
68648;SHT31;55632;51.962;16.116;2023-04-25T02:10:46;8.30;75.93
68648;SHT31;55632;51.962;16.116;2023-04-25T02:15:52;8.30;76.09
68648;SHT31;55632;51.962;16.116;2023-04-25T02:20:54;8.25;76.30
68648;SHT31;55632;51.962;16.116;2023-04-25T02:25:56;8.18;76.46
68648;SHT31;55632;51.962;16.116;2023-04-25T02:30:57;8.15;76.67
68648;SHT31;55632;51.962;16.116;2023-04-25T02:35:59;8.09;76.83
68648;SHT31;55632;51.962;16.116;2023-04-25T02:40:59;8.03;77.04
68648;SHT31;55632;51.962;16.116;2023-04-25T02:46:00;7.99;77.21
68648;SHT31;55632;51.962;16.116;2023-04-25T02:51:01;7.92;77.37
68648;SHT31;55632;51.962;16.116;2023-04-25T02:56:03;7.83;77.55
68648;SHT31;55632;51.962;16.116;2023-04-25T03:01:04;7.77;77.76
68648;SHT31;55632;51.962;16.116;2023-04-25T03:06:05;7.69;77.95
68648;SHT31;55632;51.962;16.116;2023-04-25T03:11:07;7.60;78.17
68648;SHT31;55632;51.962;16.116;2023-04-25T03:16:09;7.56;78.40
68648;SHT31;55632;51.962;16.116;2023-04-25T03:21:11;7.47;78.56
68648;SHT31;55632;51.962;16.116;2023-04-25T03:26:13;7.45;78.75
68648;SHT31;55632;51.962;16.116;2023-04-25T03:31:14;7.40;78.94
68648;SHT31;55632;51.962;16.116;2023-04-25T03:36:16;7.35;79.16
68648;SHT31;55632;51.962;16.116;2023-04-25T03:41:17;7.29;79.28
68648;SHT31;55632;51.962;16.116;2023-04-25T03:46:25;7.25;79.40
68648;SHT31;55632;51.962;16.116;2023-04-25T03:51:29;7.21;79.53
68648;SHT31;55632;51.962;16.116;2023-04-25T03:56:31;7.18;79.58
68648;SHT31;55632;51.962;16.116;2023-04-25T04:01:43;7.15;79.69
68648;SHT31;55632;51.962;16.116;2023-04-25T04:06:44;7.12;79.83
68648;SHT31;55632;51.962;16.116;2023-04-25T04:11:53;7.14;79.99
68648;SHT31;55632;51.962;16.116;2023-04-25T04:16:57;7.09;80.06
68648;SHT31;55632;51.962;16.116;2023-04-25T04:22:01;7.11;80.11
68648;SHT31;55632;51.962;16.116;2023-04-25T04:27:02;7.15;80.19
68648;SHT31;55632;51.962;16.116;2023-04-25T04:32:21;7.19;80.29
68648;SHT31;55632;51.962;16.116;2023-04-25T04:37:24;7.19;80.26
68648;SHT31;55632;51.962;16.116;2023-04-25T04:42:25;7.26;80.28
68648;SHT31;55632;51.962;16.116;2023-04-25T04:47:38;7.28;80.30
68648;SHT31;55632;51.962;16.116;2023-04-25T04:52:50;7.29;80.31
68648;SHT31;55632;51.962;16.116;2023-04-25T04:58:08;7.36;80.37
68648;SHT31;55632;51.962;16.116;2023-04-25T05:03:32;7.52;80.45
68648;SHT31;55632;51.962;16.116;2023-04-25T05:08:36;7.66;80.36
68648;SHT31;55632;51.962;16.116;2023-04-25T05:14:15;7.80;80.12
68648;SHT31;55632;51.962;16.116;2023-04-25T05:19:29;7.87;80.00
68648;SHT31;55632;51.962;16.116;2023-04-25T05:24:48;7.98;79.88
68648;SHT31;55632;51.962;16.116;2023-04-25T05:30:08;8.13;79.70
68648;SHT31;55632;51.962;16.116;2023-04-25T05:35:21;8.33;79.66
68648;SHT31;55632;51.962;16.116;2023-04-25T05:40:24;8.63;79.42
68648;SHT31;55632;51.962;16.116;2023-04-25T05:45:48;8.96;79.01
68648;SHT31;55632;51.962;16.116;2023-04-25T05:51:14;9.33;78.25
68648;SHT31;55632;51.962;16.116;2023-04-25T05:56:24;9.59;77.51
68648;SHT31;55632;51.962;16.116;2023-04-25T06:01:27;9.81;76.62
68648;SHT31;55632;51.962;16.116;2023-04-25T06:06:28;9.92;75.81
68648;SHT31;55632;51.962;16.116;2023-04-25T06:11:29;9.99;75.34
68648;SHT31;55632;51.962;16.116;2023-04-25T06:16:30;10.01;74.62
68648;SHT31;55632;51.962;16.116;2023-04-25T06:21:30;9.99;74.62
68648;SHT31;55632;51.962;16.116;2023-04-25T06:26:33;10.09;74.39
68648;SHT31;55632;51.962;16.116;2023-04-25T06:31:34;10.23;74.14
68648;SHT31;55632;51.962;16.116;2023-04-25T06:36:36;10.36;73.78
68648;SHT31;55632;51.962;16.116;2023-04-25T06:41:41;10.43;73.38
68648;SHT31;55632;51.962;16.116;2023-04-25T06:46:49;10.47;73.29
68648;SHT31;55632;51.962;16.116;2023-04-25T06:51:50;10.55;72.82
68648;SHT31;55632;51.962;16.116;2023-04-25T06:56:51;10.72;72.93
68648;SHT31;55632;51.962;16.116;2023-04-25T07:01:52;10.88;72.15
68648;SHT31;55632;51.962;16.116;2023-04-25T07:06:58;11.09;71.79
68648;SHT31;55632;51.962;16.116;2023-04-25T07:12:15;11.13;70.96
68648;SHT31;55632;51.962;16.116;2023-04-25T07:17:16;11.27;70.62
68648;SHT31;55632;51.962;16.116;2023-04-25T07:22:17;11.59;70.46
68648;SHT31;55632;51.962;16.116;2023-04-25T07:27:19;11.83;69.77
68648;SHT31;55632;51.962;16.116;2023-04-25T07:32:31;12.16;68.85
68648;SHT31;55632;51.962;16.116;2023-04-25T07:37:32;12.45;68.21
68648;SHT31;55632;51.962;16.116;2023-04-25T07:42:38;12.69;66.66
68648;SHT31;55632;51.962;16.116;2023-04-25T07:47:40;12.89;65.38
68648;SHT31;55632;51.962;16.116;2023-04-25T07:52:42;12.92;63.63
68648;SHT31;55632;51.962;16.116;2023-04-25T07:57:56;12.88;63.53
68648;SHT31;55632;51.962;16.116;2023-04-25T08:02:57;13.06;63.30
68648;SHT31;55632;51.962;16.116;2023-04-25T08:07:58;13.20;62.13
68648;SHT31;55632;51.962;16.116;2023-04-25T08:13:01;13.32;61.65
68648;SHT31;55632;51.962;16.116;2023-04-25T08:18:02;13.44;61.17
68648;SHT31;55632;51.962;16.116;2023-04-25T08:23:04;13.63;61.26
68648;SHT31;55632;51.962;16.116;2023-04-25T08:28:19;13.80;60.44
68648;SHT31;55632;51.962;16.116;2023-04-25T08:33:21;13.84;60.00
68648;SHT31;55632;51.962;16.116;2023-04-25T08:38:22;13.79;59.81
68648;SHT31;55632;51.962;16.116;2023-04-25T08:43:24;13.68;59.57
68648;SHT31;55632;51.962;16.116;2023-04-25T08:48:27;13.63;59.38
68648;SHT31;55632;51.962;16.116;2023-04-25T08:53:31;13.83;59.92
68648;SHT31;55632;51.962;16.116;2023-04-25T08:58:35;14.11;59.45
68648;SHT31;55632;51.962;16.116;2023-04-25T09:03:37;14.31;58.25
68648;SHT31;55632;51.962;16.116;2023-04-25T09:08:38;14.49;57.67
68648;SHT31;55632;51.962;16.116;2023-04-25T09:13:41;14.59;56.05
68648;SHT31;55632;51.962;16.116;2023-04-25T09:19:01;14.44;55.13
68648;SHT31;55632;51.962;16.116;2023-04-25T09:24:02;14.42;56.15
68648;SHT31;55632;51.962;16.116;2023-04-25T09:29:07;14.53;55.17
68648;SHT31;55632;51.962;16.116;2023-04-25T09:34:09;14.61;54.98
68648;SHT31;55632;51.962;16.116;2023-04-25T09:39:20;14.77;54.37
68648;SHT31;55632;51.962;16.116;2023-04-25T09:44:30;14.75;53.36
68648;SHT31;55632;51.962;16.116;2023-04-25T09:49:31;14.65;52.32
68648;SHT31;55632;51.962;16.116;2023-04-25T09:54:44;14.37;51.56
68648;SHT31;55632;51.962;16.116;2023-04-25T09:59:55;14.03;52.04
68648;SHT31;55632;51.962;16.116;2023-04-25T10:04:58;13.77;52.87
68648;SHT31;55632;51.962;16.116;2023-04-25T10:10:09;13.52;53.77
68648;SHT31;55632;51.962;16.116;2023-04-25T10:15:13;13.37;54.75
68648;SHT31;55632;51.962;16.116;2023-04-25T10:20:15;13.25;55.40
68648;SHT31;55632;51.962;16.116;2023-04-25T10:25:17;13.28;56.00
68648;SHT31;55632;51.962;16.116;2023-04-25T10:30:18;13.44;55.53
68648;SHT31;55632;51.962;16.116;2023-04-25T10:35:25;13.52;55.36
68648;SHT31;55632;51.962;16.116;2023-04-25T10:40:28;13.75;54.85
68648;SHT31;55632;51.962;16.116;2023-04-25T10:45:51;13.84;53.89
68648;SHT31;55632;51.962;16.116;2023-04-25T10:51:16;13.91;53.66
68648;SHT31;55632;51.962;16.116;2023-04-25T10:56:44;13.94;53.68
68648;SHT31;55632;51.962;16.116;2023-04-25T11:01:51;14.00;53.10
68648;SHT31;55632;51.962;16.116;2023-04-25T11:12:09;14.04;52.77
68648;SHT31;55632;51.962;16.116;2023-04-25T11:17:12;13.90;52.14
68648;SHT31;55632;51.962;16.116;2023-04-25T11:22:13;13.79;52.64
68648;SHT31;55632;51.962;16.116;2023-04-25T11:27:15;13.75;52.90
68648;SHT31;55632;51.962;16.116;2023-04-25T11:32:17;13.79;52.99
68648;SHT31;55632;51.962;16.116;2023-04-25T11:37:18;13.90;53.09
68648;SHT31;55632;51.962;16.116;2023-04-25T11:42:19;14.09;53.52
68648;SHT31;55632;51.962;16.116;2023-04-25T11:47:28;14.25;52.41
68648;SHT31;55632;51.962;16.116;2023-04-25T11:52:56;14.41;52.53
68648;SHT31;55632;51.962;16.116;2023-04-25T11:57:59;14.75;53.06
68648;SHT31;55632;51.962;16.116;2023-04-25T12:03:00;14.97;51.41
68648;SHT31;55632;51.962;16.116;2023-04-25T12:08:10;14.98;50.40
68648;SHT31;55632;51.962;16.116;2023-04-25T12:18:27;14.70;50.91
68648;SHT31;55632;51.962;16.116;2023-04-25T12:23:28;14.53;51.10
68648;SHT31;55632;51.962;16.116;2023-04-25T12:28:33;14.42;51.56
68648;SHT31;55632;51.962;16.116;2023-04-25T12:33:37;14.44;51.99
68648;SHT31;55632;51.962;16.116;2023-04-25T12:38:41;14.42;52.00
68648;SHT31;55632;51.962;16.116;2023-04-25T12:43:43;14.22;52.63
68648;SHT31;55632;51.962;16.116;2023-04-25T12:48:43;14.01;53.96
68648;SHT31;55632;51.962;16.116;2023-04-25T12:53:47;13.89;55.10
68648;SHT31;55632;51.962;16.116;2023-04-25T12:58:53;13.80;55.50
68648;SHT31;55632;51.962;16.116;2023-04-25T13:03:57;13.73;55.69
68648;SHT31;55632;51.962;16.116;2023-04-25T13:09:00;13.70;56.15
68648;SHT31;55632;51.962;16.116;2023-04-25T13:14:01;13.52;57.35
68648;SHT31;55632;51.962;16.116;2023-04-25T13:19:02;13.31;57.17
68648;SHT31;55632;51.962;16.116;2023-04-25T13:24:09;13.07;57.56
68648;SHT31;55632;51.962;16.116;2023-04-25T13:29:10;12.88;57.94
68648;SHT31;55632;51.962;16.116;2023-04-25T13:34:14;12.85;58.73
68648;SHT31;55632;51.962;16.116;2023-04-25T13:39:15;12.95;59.19
68648;SHT31;55632;51.962;16.116;2023-04-25T13:44:16;13.02;59.39
68648;SHT31;55632;51.962;16.116;2023-04-25T13:49:17;13.07;59.22
68648;SHT31;55632;51.962;16.116;2023-04-25T13:54:18;13.10;59.39
68648;SHT31;55632;51.962;16.116;2023-04-25T13:59:22;13.18;59.39
68648;SHT31;55632;51.962;16.116;2023-04-25T14:04:23;13.21;59.52
68648;SHT31;55632;51.962;16.116;2023-04-25T14:09:24;13.28;59.71
68648;SHT31;55632;51.962;16.116;2023-04-25T14:14:26;13.41;60.16
68648;SHT31;55632;51.962;16.116;2023-04-25T14:19:27;13.49;58.99
68648;SHT31;55632;51.962;16.116;2023-04-25T14:24:29;13.48;58.72
68648;SHT31;55632;51.962;16.116;2023-04-25T14:29:30;13.42;58.01
68648;SHT31;55632;51.962;16.116;2023-04-25T14:34:32;13.41;57.36
68648;SHT31;55632;51.962;16.116;2023-04-25T14:39:36;13.41;57.74
68648;SHT31;55632;51.962;16.116;2023-04-25T14:44:38;13.35;57.15
68648;SHT31;55632;51.962;16.116;2023-04-25T14:49:38;13.24;57.61
68648;SHT31;55632;51.962;16.116;2023-04-25T14:54:42;13.21;56.82
68648;SHT31;55632;51.962;16.116;2023-04-25T14:59:43;13.11;57.08
68648;SHT31;55632;51.962;16.116;2023-04-25T15:04:44;13.00;57.35
68648;SHT31;55632;51.962;16.116;2023-04-25T15:09:48;12.78;57.15
68648;SHT31;55632;51.962;16.116;2023-04-25T15:14:49;12.48;57.28
68648;SHT31;55632;51.962;16.116;2023-04-25T15:19:52;12.27;57.73
68648;SHT31;55632;51.962;16.116;2023-04-25T15:24:55;12.19;58.13
68648;SHT31;55632;51.962;16.116;2023-04-25T15:29:56;12.10;57.30
68648;SHT31;55632;51.962;16.116;2023-04-25T15:34:57;12.12;56.48
68648;SHT31;55632;51.962;16.116;2023-04-25T15:45:10;12.28;55.35
68648;SHT31;55632;51.962;16.116;2023-04-25T15:50:12;12.21;53.68
68648;SHT31;55632;51.962;16.116;2023-04-25T15:55:14;12.14;53.62
68648;SHT31;55632;51.962;16.116;2023-04-25T16:00:21;12.13;53.40
68648;SHT31;55632;51.962;16.116;2023-04-25T16:05:22;12.10;53.25
68648;SHT31;55632;51.962;16.116;2023-04-25T16:10:26;12.02;53.45
68648;SHT31;55632;51.962;16.116;2023-04-25T16:15:30;11.93;53.11
68648;SHT31;55632;51.962;16.116;2023-04-25T16:20:32;11.81;52.62
68648;SHT31;55632;51.962;16.116;2023-04-25T16:25:32;11.68;52.88
68648;SHT31;55632;51.962;16.116;2023-04-25T16:30:34;11.51;52.96
68648;SHT31;55632;51.962;16.116;2023-04-25T16:35:35;11.37;52.97
68648;SHT31;55632;51.962;16.116;2023-04-25T16:40:36;11.23;53.21
68648;SHT31;55632;51.962;16.116;2023-04-25T16:45:39;11.13;53.19
68648;SHT31;55632;51.962;16.116;2023-04-25T16:50:40;11.09;53.12
68648;SHT31;55632;51.962;16.116;2023-04-25T16:55:41;11.02;52.35
68648;SHT31;55632;51.962;16.116;2023-04-25T17:00:42;10.96;52.35
68648;SHT31;55632;51.962;16.116;2023-04-25T17:05:43;10.80;52.72
68648;SHT31;55632;51.962;16.116;2023-04-25T17:10:44;10.65;53.03
68648;SHT31;55632;51.962;16.116;2023-04-25T17:15:45;10.53;53.46
68648;SHT31;55632;51.962;16.116;2023-04-25T17:20:49;10.38;53.64
68648;SHT31;55632;51.962;16.116;2023-04-25T17:25:54;10.32;54.12
68648;SHT31;55632;51.962;16.116;2023-04-25T17:30:58;10.23;54.29
68648;SHT31;55632;51.962;16.116;2023-04-25T17:35:59;10.14;54.72
68648;SHT31;55632;51.962;16.116;2023-04-25T17:41:03;10.03;54.61
68648;SHT31;55632;51.962;16.116;2023-04-25T17:46:04;9.99;54.61
68648;SHT31;55632;51.962;16.116;2023-04-25T17:51:07;9.93;53.79
68648;SHT31;55632;51.962;16.116;2023-04-25T17:56:08;9.88;53.82
68648;SHT31;55632;51.962;16.116;2023-04-25T18:01:10;9.82;53.64
68648;SHT31;55632;51.962;16.116;2023-04-25T18:06:10;9.75;53.46
68648;SHT31;55632;51.962;16.116;2023-04-25T18:11:12;9.73;53.62
68648;SHT31;55632;51.962;16.116;2023-04-25T18:16:13;9.64;53.71
68648;SHT31;55632;51.962;16.116;2023-04-25T18:21:15;9.52;53.95
68648;SHT31;55632;51.962;16.116;2023-04-25T18:26:18;9.40;54.24
68648;SHT31;55632;51.962;16.116;2023-04-25T18:31:23;9.27;54.61
68648;SHT31;55632;51.962;16.116;2023-04-25T18:36:24;9.11;54.96
68648;SHT31;55632;51.962;16.116;2023-04-25T18:41:28;8.96;55.30
68648;SHT31;55632;51.962;16.116;2023-04-25T18:46:30;8.81;55.64
68648;SHT31;55632;51.962;16.116;2023-04-25T18:51:31;8.71;55.94
68648;SHT31;55632;51.962;16.116;2023-04-25T18:56:32;8.59;56.23
68648;SHT31;55632;51.962;16.116;2023-04-25T19:01:35;8.43;56.55
68648;SHT31;55632;51.962;16.116;2023-04-25T19:06:36;8.30;56.84
68648;SHT31;55632;51.962;16.116;2023-04-25T19:11:37;8.21;57.23
68648;SHT31;55632;51.962;16.116;2023-04-25T19:16:39;8.08;57.55
68648;SHT31;55632;51.962;16.116;2023-04-25T19:21:40;7.92;57.86
68648;SHT31;55632;51.962;16.116;2023-04-25T19:26:42;7.78;58.19
68648;SHT31;55632;51.962;16.116;2023-04-25T19:31:44;7.67;58.58
68648;SHT31;55632;51.962;16.116;2023-04-25T19:36:45;7.57;58.87
68648;SHT31;55632;51.962;16.116;2023-04-25T19:41:46;7.40;59.19
68648;SHT31;55632;51.962;16.116;2023-04-25T19:46:49;7.29;59.43
68648;SHT31;55632;51.962;16.116;2023-04-25T19:51:50;7.18;59.66
68648;SHT31;55632;51.962;16.116;2023-04-25T19:56:51;7.08;59.93
68648;SHT31;55632;51.962;16.116;2023-04-25T20:01:52;7.01;60.11
68648;SHT31;55632;51.962;16.116;2023-04-25T20:06:53;6.98;60.41
68648;SHT31;55632;51.962;16.116;2023-04-25T20:11:54;6.93;60.61
68648;SHT31;55632;51.962;16.116;2023-04-25T20:16:55;6.87;60.86
68648;SHT31;55632;51.962;16.116;2023-04-25T20:22:01;6.84;61.11
68648;SHT31;55632;51.962;16.116;2023-04-25T20:27:05;6.83;61.38
68648;SHT31;55632;51.962;16.116;2023-04-25T20:32:07;6.84;61.63
68648;SHT31;55632;51.962;16.116;2023-04-25T20:37:11;6.81;61.85
68648;SHT31;55632;51.962;16.116;2023-04-25T20:42:12;6.81;61.92
68648;SHT31;55632;51.962;16.116;2023-04-25T20:47:13;6.83;61.91
68648;SHT31;55632;51.962;16.116;2023-04-25T20:52:15;6.84;62.01
68648;SHT31;55632;51.962;16.116;2023-04-25T20:57:16;6.81;62.08
68648;SHT31;55632;51.962;16.116;2023-04-25T21:02:17;6.75;62.24
68648;SHT31;55632;51.962;16.116;2023-04-25T21:07:19;6.75;62.35
68648;SHT31;55632;51.962;16.116;2023-04-25T21:12:20;6.70;62.50
68648;SHT31;55632;51.962;16.116;2023-04-25T21:17:21;6.65;62.64
68648;SHT31;55632;51.962;16.116;2023-04-25T21:22:23;6.60;62.80
68648;SHT31;55632;51.962;16.116;2023-04-25T21:27:24;6.52;63.01
68648;SHT31;55632;51.962;16.116;2023-04-25T21:32:24;6.43;63.12
68648;SHT31;55632;51.962;16.116;2023-04-25T21:37:26;6.36;63.36
68648;SHT31;55632;51.962;16.116;2023-04-25T21:42:27;6.28;63.59
68648;SHT31;55632;51.962;16.116;2023-04-25T21:47:28;6.18;63.83
68648;SHT31;55632;51.962;16.116;2023-04-25T21:52:29;6.11;64.11
68648;SHT31;55632;51.962;16.116;2023-04-25T21:57:32;6.08;64.36
68648;SHT31;55632;51.962;16.116;2023-04-25T22:02:33;5.97;64.65
68648;SHT31;55632;51.962;16.116;2023-04-25T22:07:36;5.89;64.96
68648;SHT31;55632;51.962;16.116;2023-04-25T22:12:37;5.80;65.17
68648;SHT31;55632;51.962;16.116;2023-04-25T22:17:38;5.73;65.43
68648;SHT31;55632;51.962;16.116;2023-04-25T22:22:40;5.63;65.65
68648;SHT31;55632;51.962;16.116;2023-04-25T22:27:41;5.59;65.87
68648;SHT31;55632;51.962;16.116;2023-04-25T22:32:43;5.54;66.09
68648;SHT31;55632;51.962;16.116;2023-04-25T22:37:44;5.49;66.33
68648;SHT31;55632;51.962;16.116;2023-04-25T22:42:45;5.48;66.53
68648;SHT31;55632;51.962;16.116;2023-04-25T22:47:46;5.42;66.71
68648;SHT31;55632;51.962;16.116;2023-04-25T22:52:50;5.35;66.88
68648;SHT31;55632;51.962;16.116;2023-04-25T22:57:51;5.30;67.08
68648;SHT31;55632;51.962;16.116;2023-04-25T23:02:52;5.27;67.26
68648;SHT31;55632;51.962;16.116;2023-04-25T23:07:54;5.26;67.47
68648;SHT31;55632;51.962;16.116;2023-04-25T23:12:55;5.20;67.68
68648;SHT31;55632;51.962;16.116;2023-04-25T23:18:00;5.20;67.83
68648;SHT31;55632;51.962;16.116;2023-04-25T23:23:01;5.14;67.91
68648;SHT31;55632;51.962;16.116;2023-04-25T23:28:02;5.14;68.05
68648;SHT31;55632;51.962;16.116;2023-04-25T23:33:03;5.07;68.19
68648;SHT31;55632;51.962;16.116;2023-04-25T23:38:04;5.00;68.48
68648;SHT31;55632;51.962;16.116;2023-04-25T23:43:05;4.96;68.53
68648;SHT31;55632;51.962;16.116;2023-04-25T23:48:06;4.93;68.77
68648;SHT31;55632;51.962;16.116;2023-04-25T23:53:07;4.90;68.95
68648;SHT31;55632;51.962;16.116;2023-04-25T23:58:08;4.87;69.14
